createdAt,value
2022-08-02T12:01:45.675Z,0.00
2022-08-02T12:02:39.931Z,4.00
2022-08-02T12:03:39.856Z,2.50
2022-08-02T12:04:39.959Z,1.40
2022-08-02T12:06:04.694Z,3.20
2022-08-02T12:06:39.832Z,1.30
2022-08-02T12:07:45.851Z,0.00
2022-08-02T12:08:39.769Z,0.00
2022-08-02T12:09:41.363Z,0.00
2022-08-02T12:10:39.849Z,0.00
2022-08-02T12:11:39.816Z,0.00
2022-08-02T12:12:39.923Z,0.00
2022-08-02T12:13:39.895Z,0.00
2022-08-02T12:14:39.778Z,0.00
2022-08-02T12:15:39.894Z,0.00
2022-08-02T12:16:39.821Z,0.00
2022-08-02T12:17:39.853Z,0.00
2022-08-02T12:18:39.896Z,0.00
2022-08-02T12:19:40.018Z,0.00
2022-08-02T12:20:39.839Z,0.00
2022-08-02T12:21:40.374Z,0.00
2022-08-02T12:22:41.984Z,0.00
2022-08-02T12:23:39.843Z,0.00
2022-08-02T12:24:39.841Z,0.00
2022-08-02T12:25:39.876Z,0.00
2022-08-02T12:26:40.022Z,0.00
2022-08-02T12:27:40.039Z,0.00
2022-08-02T12:28:40.041Z,0.00
2022-08-02T12:29:58.686Z,0.00
2022-08-02T12:30:40.086Z,0.00
2022-08-02T12:31:56.812Z,1.20
2022-08-02T12:32:40.112Z,1.50
2022-08-02T12:33:40.093Z,0.00
2022-08-02T12:34:40.795Z,0.00
2022-08-02T12:35:40.097Z,2.50
2022-08-02T12:36:40.126Z,1.70
2022-08-02T12:37:40.216Z,3.20
2022-08-02T12:38:40.832Z,1.90
2022-08-02T12:39:40.217Z,2.50
2022-08-02T12:40:40.227Z,1.00
2022-08-02T12:41:40.253Z,4.70
2022-08-02T12:42:40.610Z,1.80
2022-08-02T12:43:40.265Z,2.40
2022-08-02T12:44:40.248Z,2.70
2022-08-02T12:45:41.881Z,1.90
2022-08-02T12:46:42.122Z,3.30
2022-08-02T12:47:40.304Z,2.40
2022-08-02T12:48:52.122Z,8.30
2022-08-02T12:49:40.330Z,1.30
2022-08-02T12:50:40.236Z,1.80
2022-08-02T12:51:50.896Z,4.50
2022-08-02T12:52:40.302Z,1.90
2022-08-02T12:53:40.249Z,1.80
2022-08-02T12:54:40.331Z,3.90
2022-08-02T12:55:59.970Z,4.60
2022-08-02T12:56:40.261Z,3.90
2022-08-02T12:57:40.983Z,7.30
2022-08-02T12:58:40.282Z,5.40
2022-08-02T12:59:40.278Z,8.30
2022-08-02T13:00:40.278Z,6.30
2022-08-02T13:01:40.352Z,2.50
2022-08-02T13:02:40.708Z,2.60
2022-08-02T13:04:12.213Z,4.50
2022-08-02T13:04:40.354Z,2.80
2022-08-02T13:05:57.075Z,1.20
2022-08-02T13:06:43.909Z,1.20
2022-08-02T13:07:40.373Z,5.10
2022-08-02T13:08:40.306Z,3.50
2022-08-02T13:09:40.338Z,2.20
2022-08-02T13:10:40.515Z,1.40
2022-08-02T13:11:43.217Z,2.40
2022-08-02T13:12:40.457Z,4.30
2022-08-02T13:13:40.382Z,0.00
2022-08-02T13:14:42.167Z,0.00
2022-08-02T13:15:49.012Z,0.00
2022-08-02T13:16:40.345Z,2.40
2022-08-02T13:17:40.372Z,2.30
2022-08-02T13:18:40.305Z,2.10
2022-08-02T13:19:40.313Z,0.00
2022-08-02T13:20:44.721Z,0.00
2022-08-02T13:22:01.497Z,0.00
2022-08-02T13:22:51.386Z,0.00
2022-08-02T13:23:53.887Z,1.60
2022-08-02T13:24:55.945Z,4.60
2022-08-02T13:25:40.406Z,1.80
2022-08-02T13:26:40.407Z,0.00
2022-08-02T13:27:40.716Z,0.00
2022-08-02T13:28:40.921Z,0.00
2022-08-02T13:29:40.381Z,0.00
2022-08-02T13:30:40.408Z,0.00
2022-08-02T13:31:40.412Z,0.00
2022-08-02T13:32:40.771Z,0.00
2022-08-02T13:33:40.448Z,0.00
2022-08-02T13:34:40.477Z,0.00
2022-08-02T13:35:40.556Z,0.00
2022-08-02T13:36:40.568Z,0.00
2022-08-02T13:37:40.806Z,0.00
2022-08-02T13:38:40.698Z,0.00
2022-08-02T13:39:40.573Z,0.00
2022-08-02T13:41:03.152Z,0.00
2022-08-02T13:41:40.764Z,0.00
2022-08-02T13:42:40.595Z,0.00
2022-08-02T13:43:52.184Z,0.00
2022-08-02T13:44:40.646Z,0.00
2022-08-02T13:45:40.614Z,0.00
2022-08-02T13:46:45.270Z,0.00
2022-08-02T13:47:57.372Z,0.00
2022-08-02T13:48:40.656Z,0.00
2022-08-02T13:49:49.732Z,0.00
2022-08-02T13:50:40.819Z,0.00
2022-08-02T13:51:40.677Z,0.00
2022-08-02T13:52:40.754Z,0.00
2022-08-02T13:53:40.626Z,0.00
2022-08-02T13:54:40.727Z,0.00
2022-08-02T13:55:43.299Z,0.00
2022-08-02T13:56:40.682Z,0.00
2022-08-02T13:57:41.447Z,0.00
2022-08-02T13:58:40.682Z,0.00
2022-08-02T13:59:57.739Z,0.00
2022-08-02T14:00:40.676Z,0.00
2022-08-02T14:01:40.683Z,0.00
2022-08-02T14:02:40.988Z,0.00
2022-08-02T14:04:08.024Z,0.00
2022-08-02T14:04:40.703Z,0.00
2022-08-02T14:05:48.338Z,0.00
2022-08-02T14:06:40.652Z,0.00
2022-08-02T14:07:40.956Z,0.00
2022-08-02T14:08:40.754Z,0.00
2022-08-02T14:09:40.670Z,0.00
2022-08-02T14:10:40.687Z,0.00
2022-08-02T14:11:40.746Z,0.00
2022-08-02T14:12:41.207Z,0.00
2022-08-02T14:13:40.697Z,0.00
2022-08-02T14:14:40.690Z,0.00
2022-08-02T14:15:40.688Z,3.50
2022-08-02T14:16:40.723Z,1.60
2022-08-02T14:17:40.727Z,3.30
2022-08-02T14:18:40.710Z,2.60
2022-08-02T14:19:40.777Z,3.00
2022-08-02T14:20:40.783Z,2.20
2022-08-02T14:21:46.839Z,3.10
2022-08-02T14:22:40.879Z,2.60
2022-08-02T14:23:49.406Z,2.30
2022-08-02T14:24:41.038Z,5.60
2022-08-02T14:25:40.812Z,2.10
2022-08-02T14:26:40.782Z,7.10
2022-08-02T14:27:40.874Z,2.30
2022-08-02T14:28:40.798Z,2.10
2022-08-02T14:29:40.812Z,3.10
2022-08-02T14:30:40.856Z,1.40
2022-08-02T14:31:44.276Z,1.50
2022-08-02T14:32:41.035Z,1.30
2022-08-02T14:33:40.814Z,3.00
2022-08-02T14:34:40.828Z,1.90
2022-08-02T14:35:40.860Z,1.90
2022-08-02T14:36:40.817Z,2.20
2022-08-02T14:37:40.852Z,2.30
2022-08-02T14:38:40.903Z,3.20
2022-08-02T14:39:43.206Z,0.90
2022-08-02T14:40:40.822Z,1.20
2022-08-02T14:41:58.226Z,1.60
2022-08-02T14:42:41.179Z,1.30
2022-08-02T14:43:40.841Z,2.20
2022-08-02T14:44:40.842Z,1.80
2022-08-02T14:45:41.526Z,1.50
2022-08-02T14:46:40.836Z,2.40
2022-08-02T14:47:41.458Z,2.50
2022-08-02T14:48:40.849Z,1.40
2022-08-02T14:49:42.338Z,3.60
2022-08-02T14:50:40.892Z,1.90
2022-08-02T14:51:40.855Z,2.10
2022-08-02T14:52:41.287Z,1.90
2022-08-02T14:53:49.114Z,2.60
2022-08-02T14:54:40.856Z,3.50
2022-08-02T14:55:40.871Z,2.70
2022-08-02T14:56:40.853Z,3.20
2022-08-02T14:57:40.888Z,3.70
2022-08-02T14:58:40.871Z,1.00
2022-08-02T14:59:42.581Z,2.10
2022-08-02T15:00:41.728Z,2.20
2022-08-02T15:01:41.031Z,2.30
2022-08-02T15:02:41.207Z,2.90
2022-08-02T15:03:43.641Z,0.00
2022-08-02T15:04:42.734Z,0.00
2022-08-02T15:05:40.912Z,0.00
2022-08-02T15:06:40.986Z,0.00
2022-08-02T15:07:44.203Z,0.00
2022-08-02T15:08:41.019Z,0.00
2022-08-02T15:09:41.162Z,0.00
2022-08-02T15:10:41.000Z,0.00
2022-08-02T15:11:48.149Z,0.00
2022-08-02T15:12:41.494Z,0.00
2022-08-02T15:13:42.569Z,0.00
2022-08-02T15:14:40.983Z,0.00
2022-08-02T15:15:43.641Z,0.00
2022-08-02T15:16:55.352Z,0.00
2022-08-02T15:17:41.024Z,0.00
2022-08-02T15:18:41.030Z,0.00
2022-08-02T15:19:59.158Z,0.00
2022-08-02T15:20:41.483Z,0.00
2022-08-02T15:21:52.329Z,0.00
2022-08-02T15:22:41.049Z,0.00
2022-08-02T15:23:41.077Z,0.00
2022-08-02T15:24:41.023Z,0.00
2022-08-02T15:25:41.588Z,0.00
2022-08-02T15:26:41.031Z,0.00
2022-08-02T15:27:41.039Z,0.00
2022-08-02T15:28:41.055Z,0.00
2022-08-02T15:29:41.054Z,0.00
2022-08-02T15:30:41.061Z,0.00
2022-08-02T15:31:41.879Z,0.00
2022-08-02T15:32:41.093Z,0.00
2022-08-02T15:33:41.046Z,0.00
2022-08-02T15:34:41.115Z,0.00
2022-08-02T15:35:41.054Z,0.00
2022-08-02T15:36:41.057Z,0.00
2022-08-02T15:37:41.678Z,0.00
2022-08-02T15:38:41.066Z,0.00
2022-08-02T15:39:41.259Z,0.00
2022-08-02T15:40:41.066Z,0.00
2022-08-02T15:41:41.077Z,0.00
2022-08-02T15:42:41.276Z,0.00
2022-08-02T15:43:41.073Z,0.00
2022-08-02T15:44:41.088Z,0.00
2022-08-02T15:45:41.109Z,0.00
2022-08-02T15:46:41.087Z,0.00
2022-08-02T15:47:41.111Z,0.00
2022-08-02T15:48:41.178Z,0.00
2022-08-02T15:49:41.744Z,0.00
2022-08-02T15:50:41.148Z,0.00
2022-08-02T15:51:41.090Z,0.00
2022-08-02T15:52:41.566Z,0.00
2022-08-02T15:53:41.097Z,0.00
2022-08-02T15:54:41.114Z,0.00
2022-08-02T15:55:52.764Z,0.00
2022-08-02T15:56:41.115Z,0.00
2022-08-02T15:57:41.126Z,0.00
2022-08-02T15:58:44.421Z,0.00
2022-08-02T15:59:41.175Z,0.00
2022-08-02T16:00:41.128Z,0.00
